createdAt,value
2018-07-15T00:00:02.149Z,73.50
2018-07-15T00:02:30.574Z,73.30
2018-07-15T00:04:58.948Z,73.80
2018-07-15T00:07:27.625Z,73.50
2018-07-15T00:09:55.965Z,73.00
2018-07-15T00:12:24.379Z,73.30
2018-07-15T00:14:52.697Z,73.20
2018-07-15T00:17:21.053Z,73.00
2018-07-15T00:19:49.456Z,73.10
2018-07-15T00:22:17.853Z,72.80
2018-07-15T00:24:47.002Z,72.70
2018-07-15T00:27:15.351Z,72.90
2018-07-15T00:29:43.706Z,73.00
2018-07-15T00:32:12.100Z,73.00
2018-07-15T00:34:40.485Z,73.00
2018-07-15T00:37:08.826Z,73.70
2018-07-15T00:39:37.244Z,73.60
2018-07-15T00:42:05.642Z,73.40
2018-07-15T00:44:34.062Z,73.30
2018-07-15T00:47:02.432Z,73.40
2018-07-15T00:49:30.773Z,73.20
2018-07-15T00:54:21.291Z,73.10
2018-07-15T00:56:49.791Z,73.50
2018-07-15T00:59:18.522Z,73.20
2018-07-15T01:01:46.867Z,73.00
2018-07-15T01:04:15.194Z,72.90
2018-07-15T01:06:43.600Z,73.00
2018-07-15T01:09:12.185Z,73.00
2018-07-15T01:11:40.597Z,73.90
2018-07-15T01:14:09.556Z,73.30
2018-07-15T01:16:39.164Z,73.10
2018-07-15T01:19:07.954Z,73.20
2018-07-15T01:21:36.586Z,73.10
2018-07-15T01:24:05.163Z,73.30
2018-07-15T01:26:33.512Z,73.60
2018-07-15T01:29:01.857Z,73.30
2018-07-15T01:31:30.305Z,73.80
2018-07-15T01:33:58.960Z,74.00
2018-07-15T01:36:28.022Z,73.90
2018-07-15T01:38:56.334Z,74.00
2018-07-15T01:41:24.705Z,74.00
2018-07-15T01:43:53.122Z,74.00
2018-07-15T01:46:22.111Z,74.00
2018-07-15T01:48:50.747Z,73.80
2018-07-15T01:51:19.140Z,73.90
2018-07-15T01:53:47.611Z,73.90
2018-07-15T01:56:15.944Z,73.80
2018-07-15T01:58:44.360Z,73.80
2018-07-15T02:01:12.844Z,74.30
2018-07-15T02:03:41.279Z,74.40
2018-07-15T02:06:09.665Z,74.30
2018-07-15T02:08:38.083Z,74.30
2018-07-15T02:11:06.618Z,74.30
2018-07-15T02:13:35.003Z,74.00
2018-07-15T02:16:03.378Z,73.70
2018-07-15T02:27:28.498Z,73.80
2018-07-15T02:29:56.812Z,74.40
2018-07-15T02:32:25.600Z,74.60
2018-07-15T02:34:54.204Z,74.60
2018-07-15T02:37:23.240Z,74.80
2018-07-15T02:39:52.149Z,74.80
2018-07-15T02:42:20.786Z,74.90
2018-07-15T02:44:49.155Z,74.70
2018-07-15T02:49:45.660Z,74.80
2018-07-15T02:52:13.976Z,75.00
2018-07-15T02:54:42.362Z,74.90
2018-07-15T02:57:10.738Z,74.90
2018-07-15T02:59:39.157Z,75.00
2018-07-15T03:02:07.613Z,74.90
2018-07-15T03:04:36.252Z,75.10
2018-07-15T03:09:32.746Z,75.40
2018-07-15T03:12:01.448Z,75.30
2018-07-15T03:14:29.804Z,75.20
2018-07-15T03:16:58.166Z,75.10
2018-07-15T03:19:26.551Z,75.20
2018-07-15T03:21:55.213Z,75.20
2018-07-15T03:24:23.704Z,75.20
2018-07-15T03:26:52.073Z,75.50
2018-07-15T03:29:20.474Z,75.40
2018-07-15T03:31:48.894Z,75.50
2018-07-15T03:34:17.304Z,75.50
2018-07-15T03:36:45.701Z,75.90
2018-07-15T03:39:14.061Z,75.70
2018-07-15T03:41:42.545Z,75.80
2018-07-15T03:44:10.955Z,75.90
2018-07-15T03:46:39.317Z,76.10
2018-07-15T03:49:07.678Z,76.10
2018-07-15T03:51:36.040Z,76.00
2018-07-15T03:54:04.406Z,76.00
2018-07-15T03:56:32.760Z,76.10
2018-07-15T03:59:01.111Z,76.10
2018-07-15T04:01:29.588Z,77.00
2018-07-15T04:03:57.942Z,76.30
2018-07-15T04:06:26.320Z,76.30
2018-07-15T04:08:54.882Z,76.30
2018-07-15T04:11:23.472Z,76.10
2018-07-15T04:13:51.957Z,76.30
2018-07-15T04:16:20.323Z,76.50
2018-07-15T04:18:48.686Z,76.50
2018-07-15T04:21:17.105Z,76.80
2018-07-15T04:23:45.568Z,77.00
2018-07-15T04:26:14.004Z,76.90
2018-07-15T04:28:42.362Z,77.00
2018-07-15T04:31:11.072Z,76.90
2018-07-15T04:33:39.390Z,76.90
2018-07-15T04:36:07.787Z,77.00
2018-07-15T04:38:36.181Z,76.80
2018-07-15T04:41:04.552Z,76.80
2018-07-15T04:43:32.979Z,76.90
2018-07-15T04:46:01.385Z,76.80
2018-07-15T04:48:30.110Z,76.60
2018-07-15T04:50:59.126Z,76.90
2018-07-15T04:53:27.523Z,76.10
2018-07-15T04:55:55.945Z,76.20
2018-07-15T04:58:24.275Z,76.40
2018-07-15T05:00:52.648Z,76.90
2018-07-15T05:03:21.050Z,75.40
2018-07-15T05:05:49.379Z,75.70
2018-07-15T05:10:45.784Z,75.20
2018-07-15T05:13:14.445Z,75.20
2018-07-15T05:15:42.867Z,75.30
2018-07-15T05:18:11.269Z,74.90
2018-07-15T05:20:39.709Z,74.80
2018-07-15T05:23:08.722Z,74.40
2018-07-15T05:25:37.134Z,73.80
2018-07-15T05:28:05.621Z,74.00
2018-07-15T05:30:34.036Z,73.50
2018-07-15T05:33:02.940Z,73.30
2018-07-15T05:35:31.397Z,73.70
2018-07-15T05:37:59.815Z,73.20
2018-07-15T05:40:28.260Z,72.70
2018-07-15T05:42:56.675Z,72.70
2018-07-15T05:45:25.097Z,72.30
2018-07-15T05:47:53.558Z,71.90
2018-07-15T05:50:21.988Z,71.50
2018-07-15T05:52:50.409Z,71.90
2018-07-15T05:55:18.851Z,71.90
2018-07-15T05:57:47.227Z,71.10
2018-07-15T06:00:15.656Z,70.90
2018-07-15T06:02:44.084Z,70.70
2018-07-15T06:05:12.762Z,70.70
2018-07-15T06:07:41.146Z,70.90
2018-07-15T06:10:09.557Z,70.20
2018-07-15T06:12:38.313Z,70.80
2018-07-15T06:15:07.035Z,69.40
2018-07-15T06:17:35.457Z,69.90
2018-07-15T06:22:32.321Z,68.80
2018-07-15T06:25:00.681Z,68.60
2018-07-15T06:27:29.026Z,69.60
2018-07-15T06:29:57.471Z,68.90
2018-07-15T06:32:25.869Z,68.60
2018-07-15T06:34:54.283Z,67.60
2018-07-15T06:37:22.687Z,67.70
2018-07-15T06:39:51.052Z,67.80
2018-07-15T06:42:19.442Z,67.90
2018-07-15T06:44:47.850Z,67.20
2018-07-15T06:47:16.276Z,66.30
2018-07-15T06:49:45.036Z,66.00
2018-07-15T06:52:13.461Z,65.80
2018-07-15T06:54:42.968Z,65.40
2018-07-15T06:57:11.316Z,64.40
2018-07-15T06:59:39.657Z,63.70
2018-07-15T07:02:07.997Z,63.40
2018-07-15T07:04:36.362Z,63.50
2018-07-15T07:07:04.787Z,63.30
2018-07-15T07:09:33.489Z,63.60
2018-07-15T07:12:01.866Z,62.20
2018-07-15T07:14:30.231Z,61.70
2018-07-15T07:16:58.619Z,61.20
2018-07-15T07:19:27.044Z,60.80
2018-07-15T07:21:55.399Z,60.70
2018-07-15T07:24:24.012Z,60.50
2018-07-15T07:26:52.379Z,60.90
2018-07-15T07:29:20.789Z,59.50
2018-07-15T07:31:49.157Z,59.10
2018-07-15T07:34:17.509Z,58.50
2018-07-15T07:36:45.953Z,59.30
2018-07-15T07:41:42.442Z,59.20
2018-07-15T07:44:10.834Z,58.80
2018-07-15T07:46:39.198Z,59.10
2018-07-15T07:49:07.639Z,58.20
2018-07-15T07:51:36.045Z,56.10
2018-07-15T07:54:04.682Z,56.00
2018-07-15T07:56:33.027Z,56.50
2018-07-15T07:59:01.404Z,54.60
2018-07-15T08:01:29.778Z,55.00
2018-07-15T08:03:58.108Z,54.30
2018-07-15T08:06:26.538Z,53.50
2018-07-15T08:08:54.939Z,53.50
2018-07-15T08:13:51.582Z,52.60
2018-07-15T08:16:19.920Z,50.70
2018-07-15T08:18:48.392Z,52.20
2018-07-15T08:21:16.854Z,51.20
2018-07-15T08:23:45.239Z,50.20
2018-07-15T08:26:13.689Z,50.40
2018-07-15T08:28:42.071Z,49.70
2018-07-15T08:31:14.773Z,51.00
2018-07-15T08:33:43.165Z,51.70
2018-07-15T08:38:40.708Z,49.80
2018-07-15T08:41:09.096Z,49.00
2018-07-15T08:43:37.857Z,49.50
2018-07-15T08:46:06.794Z,49.40
2018-07-15T08:48:35.089Z,48.40
2018-07-15T08:51:03.912Z,48.90
2018-07-15T08:53:32.301Z,48.30
2018-07-15T08:56:00.701Z,48.20
2018-07-15T08:58:29.185Z,49.40
2018-07-15T09:00:57.733Z,46.60
2018-07-15T09:03:26.313Z,45.00
2018-07-15T09:05:54.628Z,44.60
2018-07-15T09:08:23.137Z,41.20
2018-07-15T09:10:52.260Z,43.90
2018-07-15T09:13:21.250Z,40.70
2018-07-15T09:15:50.109Z,40.50
2018-07-15T09:18:18.519Z,39.40
2018-07-15T09:20:46.977Z,40.60
2018-07-15T09:23:15.344Z,39.20
2018-07-15T09:25:43.669Z,39.60
2018-07-15T09:28:12.008Z,39.80
2018-07-15T09:33:08.723Z,37.80
2018-07-15T09:35:37.118Z,39.00
2018-07-15T09:38:05.795Z,39.90
2018-07-15T09:40:34.212Z,39.70
2018-07-15T09:43:02.636Z,40.30
2018-07-15T09:45:34.244Z,39.40
2018-07-15T09:48:02.704Z,37.60
2018-07-15T09:50:31.103Z,38.10
2018-07-15T09:52:59.498Z,38.70
2018-07-15T09:55:28.176Z,39.70
2018-07-15T09:57:56.545Z,38.70
2018-07-15T10:00:30.377Z,36.90
2018-07-15T10:02:58.852Z,38.20
2018-07-15T10:05:27.596Z,37.60
2018-07-15T10:07:56.372Z,37.80
2018-07-15T10:10:24.811Z,39.70
2018-07-15T10:12:53.159Z,37.80
2018-07-15T10:15:21.481Z,37.50
2018-07-15T10:17:50.703Z,37.90
2018-07-15T10:20:19.085Z,37.60
2018-07-15T10:22:47.486Z,36.00
2018-07-15T10:25:15.951Z,37.50
2018-07-15T10:29:13.760Z,36.20
2018-07-15T10:31:42.113Z,36.40
2018-07-15T10:34:10.487Z,36.70
2018-07-15T10:36:39.018Z,38.00
2018-07-15T10:39:07.856Z,36.90
2018-07-15T10:41:36.264Z,35.00
2018-07-15T10:44:04.921Z,36.50
2018-07-15T10:46:33.363Z,35.70
2018-07-15T10:51:30.136Z,35.00
2018-07-15T10:53:58.528Z,36.00
2018-07-15T10:56:27.103Z,34.20
2018-07-15T10:58:55.835Z,36.60
2018-07-15T11:01:24.503Z,34.90
2018-07-15T11:03:52.865Z,36.00
2018-07-15T11:06:21.846Z,37.00
2018-07-15T11:08:50.248Z,36.00
2018-07-15T11:13:46.778Z,35.60
2018-07-15T11:16:16.253Z,35.30
2018-07-15T11:18:44.914Z,34.90
2018-07-15T11:21:13.506Z,36.40
2018-07-15T11:23:41.854Z,35.60
2018-07-15T11:26:10.286Z,35.40
2018-07-15T11:28:38.728Z,33.50
2018-07-15T11:31:08.013Z,33.40
2018-07-15T11:33:36.219Z,33.00
2018-07-15T11:36:04.681Z,33.10
2018-07-15T11:38:33.103Z,32.50
2018-07-15T11:41:01.572Z,32.40
2018-07-15T11:43:30.126Z,32.60
2018-07-15T11:45:58.456Z,33.20
2018-07-15T11:48:26.898Z,31.40
2018-07-15T11:50:55.350Z,32.10
2018-07-15T11:53:23.719Z,31.60
2018-07-15T11:55:52.077Z,32.60
2018-07-15T11:58:20.493Z,31.60
2018-07-15T12:00:48.895Z,33.40
2018-07-15T12:03:17.762Z,32.80
2018-07-15T12:05:46.109Z,32.10
2018-07-15T12:08:14.577Z,32.70
2018-07-15T12:10:42.994Z,32.30
2018-07-15T12:13:11.663Z,31.70
2018-07-15T12:15:40.729Z,30.10
2018-07-15T12:18:09.227Z,31.90
2018-07-15T12:20:37.936Z,31.40
2018-07-15T12:23:06.368Z,31.30
2018-07-15T12:25:34.833Z,32.30
2018-07-15T12:28:03.540Z,31.80
2018-07-15T12:30:32.368Z,31.00
2018-07-15T12:33:01.502Z,33.00
2018-07-15T12:35:29.830Z,33.20
2018-07-15T12:37:58.167Z,31.60
2018-07-15T12:40:26.974Z,30.70
2018-07-15T12:42:55.711Z,32.60
2018-07-15T12:45:24.093Z,31.10
2018-07-15T12:47:52.526Z,30.30
2018-07-15T12:50:21.049Z,31.50
2018-07-15T12:52:49.406Z,31.30
2018-07-15T12:55:17.778Z,31.30
2018-07-15T12:57:46.180Z,29.70
2018-07-15T13:00:14.618Z,31.00
2018-07-15T13:02:43.116Z,30.00
2018-07-15T13:05:11.631Z,29.20
2018-07-15T13:10:08.342Z,30.00
2018-07-15T13:12:36.744Z,31.00
2018-07-15T13:15:05.470Z,31.60
2018-07-15T13:17:33.943Z,30.70
2018-07-15T13:20:02.315Z,30.60
2018-07-15T13:22:30.687Z,31.90
2018-07-15T13:24:59.088Z,30.00
2018-07-15T13:27:27.724Z,31.30
2018-07-15T13:29:56.297Z,31.50
2018-07-15T13:32:24.676Z,30.70
2018-07-15T13:34:53.005Z,30.50
2018-07-15T13:37:21.348Z,31.60
2018-07-15T13:39:49.805Z,31.60
2018-07-15T13:42:18.195Z,30.30
2018-07-15T13:44:46.605Z,30.20
2018-07-15T13:47:14.940Z,29.50
2018-07-15T13:49:43.260Z,30.10
2018-07-15T13:52:11.652Z,30.70
2018-07-15T13:54:39.993Z,30.60
2018-07-15T13:57:08.647Z,32.30
2018-07-15T13:59:37.055Z,30.80
2018-07-15T14:02:05.446Z,31.00
2018-07-15T14:04:33.824Z,30.00
2018-07-15T14:07:02.219Z,30.20
2018-07-15T14:09:30.584Z,32.20
2018-07-15T14:11:58.965Z,32.40
2018-07-15T14:14:27.339Z,31.20
2018-07-15T14:16:55.701Z,32.20
2018-07-15T14:19:24.070Z,31.80
2018-07-15T14:23:21.933Z,31.80
2018-07-15T14:25:50.312Z,31.30
2018-07-15T14:28:18.752Z,32.60
2018-07-15T14:30:47.106Z,31.80
2018-07-15T14:35:43.658Z,31.80
2018-07-15T14:38:12.265Z,32.10
2018-07-15T14:40:40.691Z,31.60
2018-07-15T14:43:09.170Z,31.80
2018-07-15T14:45:41.602Z,32.60
2018-07-15T14:53:06.297Z,33.30
2018-07-15T14:55:34.931Z,32.60
2018-07-15T14:58:03.345Z,31.90
2018-07-15T15:00:32.064Z,32.90
2018-07-15T15:03:00.458Z,33.00
2018-07-15T15:05:29.156Z,33.80
2018-07-15T15:07:57.518Z,34.30
2018-07-15T15:10:26.468Z,34.40
2018-07-15T15:12:54.874Z,34.10
2018-07-15T15:15:23.390Z,34.30
2018-07-15T15:17:51.718Z,33.40
2018-07-15T15:20:20.089Z,33.70
2018-07-15T15:25:16.989Z,33.60
2018-07-15T15:27:45.366Z,33.90
2018-07-15T15:30:13.844Z,33.80
2018-07-15T15:32:42.225Z,34.10
2018-07-15T15:35:10.580Z,32.90
2018-07-15T15:37:38.965Z,33.30
2018-07-15T15:40:07.419Z,33.70
2018-07-15T15:42:35.766Z,33.50
2018-07-15T15:45:04.760Z,33.80
2018-07-15T15:47:33.937Z,33.90
2018-07-15T15:50:02.592Z,32.60
2018-07-15T15:52:31.446Z,33.50
2018-07-15T15:55:00.154Z,33.40
2018-07-15T15:57:28.808Z,33.10
2018-07-15T15:59:57.191Z,33.40
2018-07-15T16:02:25.607Z,33.50
2018-07-15T16:04:54.017Z,33.50
2018-07-15T16:07:22.465Z,32.70
2018-07-15T16:09:51.102Z,32.80
2018-07-15T16:12:19.474Z,32.90
2018-07-15T16:14:47.836Z,33.10
2018-07-15T16:17:16.201Z,32.00
2018-07-15T16:19:44.563Z,32.70
2018-07-15T16:24:41.094Z,32.60
2018-07-15T16:27:09.436Z,32.40
2018-07-15T16:29:37.851Z,32.10
2018-07-15T16:32:06.496Z,31.40
2018-07-15T16:34:34.935Z,31.70
2018-07-15T16:39:31.798Z,30.20
2018-07-15T16:42:00.213Z,31.10
2018-07-15T16:44:28.640Z,32.70
2018-07-15T16:46:57.021Z,33.00
2018-07-15T16:49:25.422Z,32.90
2018-07-15T16:51:53.763Z,33.50
2018-07-15T16:54:22.133Z,33.20
2018-07-15T16:56:50.560Z,33.40
2018-07-15T16:59:18.967Z,33.60
2018-07-15T17:01:47.348Z,33.80
2018-07-15T17:04:15.752Z,34.30
2018-07-15T17:06:44.186Z,33.90
2018-07-15T17:09:12.603Z,34.10
2018-07-15T17:11:41.283Z,33.40
2018-07-15T17:14:09.944Z,33.50
2018-07-15T17:16:38.417Z,33.90
2018-07-15T17:19:06.798Z,33.90
2018-07-15T17:21:35.140Z,34.10
2018-07-15T17:24:03.538Z,34.30
2018-07-15T17:26:32.169Z,34.00
2018-07-15T17:29:00.542Z,33.50
2018-07-15T17:31:28.902Z,33.50
2018-07-15T17:33:57.313Z,33.30
2018-07-15T17:36:25.739Z,33.60
2018-07-15T17:38:54.148Z,33.70
2018-07-15T17:41:22.590Z,33.80
2018-07-15T17:46:19.435Z,34.90
2018-07-15T17:48:47.625Z,34.00
2018-07-15T17:51:16.773Z,34.30
2018-07-15T17:53:45.190Z,34.20
2018-07-15T17:56:13.579Z,34.00
2018-07-15T17:58:41.985Z,34.20
2018-07-15T18:03:38.413Z,34.00
2018-07-15T18:06:06.857Z,33.80
2018-07-15T18:08:35.290Z,34.20
2018-07-15T18:11:03.744Z,34.30
2018-07-15T18:13:32.170Z,34.40
2018-07-15T18:16:00.595Z,34.00
2018-07-15T18:18:29.330Z,34.20
2018-07-15T18:20:57.724Z,34.40
2018-07-15T18:23:26.109Z,34.70
2018-07-15T18:25:54.544Z,34.20
2018-07-15T18:30:51.352Z,34.10
2018-07-15T18:33:19.931Z,34.20
2018-07-15T18:35:48.348Z,34.20
2018-07-15T18:38:16.992Z,34.20
2018-07-15T18:40:45.386Z,34.30
2018-07-15T18:43:14.053Z,35.50
2018-07-15T18:45:42.411Z,35.30
2018-07-15T18:48:11.057Z,35.10
2018-07-15T18:50:39.496Z,36.70
2018-07-15T18:53:07.899Z,36.00
2018-07-15T18:55:36.281Z,35.60
2018-07-15T18:58:04.940Z,35.10
2018-07-15T19:00:33.612Z,35.20
2018-07-15T19:03:02.670Z,35.60
2018-07-15T19:05:31.071Z,37.20
2018-07-15T19:07:59.491Z,37.90
2018-07-15T19:10:27.939Z,37.60
2018-07-15T19:12:56.314Z,37.60
2018-07-15T19:15:24.805Z,36.80
2018-07-15T19:17:53.586Z,36.50
2018-07-15T19:20:21.958Z,36.50
2018-07-15T19:22:50.310Z,36.30
2018-07-15T19:25:19.324Z,37.20
2018-07-15T19:27:47.976Z,38.80
2018-07-15T19:30:16.331Z,38.60
2018-07-15T19:32:44.750Z,38.30
2018-07-15T19:35:13.365Z,37.80
2018-07-15T19:37:41.783Z,38.10
2018-07-15T19:40:10.184Z,36.70
2018-07-15T19:42:38.565Z,37.20
2018-07-15T19:45:07.277Z,37.60
2018-07-15T19:47:35.676Z,38.50
2018-07-15T19:50:04.115Z,39.60
2018-07-15T19:52:32.609Z,40.10
2018-07-15T19:55:01.015Z,39.70
2018-07-15T19:57:29.725Z,40.20
2018-07-15T19:59:58.097Z,41.60
2018-07-15T20:02:26.556Z,41.20
2018-07-15T20:04:54.901Z,41.10
2018-07-15T20:07:23.391Z,40.90
2018-07-15T20:09:51.661Z,40.80
2018-07-15T20:12:20.094Z,41.30
2018-07-15T20:14:48.459Z,43.10
2018-07-15T20:17:16.922Z,42.70
2018-07-15T20:19:45.586Z,42.10
2018-07-15T20:22:13.964Z,42.00
2018-07-15T20:24:42.387Z,42.10
2018-07-15T20:27:11.362Z,42.70
2018-07-15T20:29:39.735Z,43.20
2018-07-15T20:34:36.201Z,43.20
2018-07-15T20:37:04.594Z,43.40
2018-07-15T20:39:33.242Z,43.40
2018-07-15T20:42:02.287Z,43.30
2018-07-15T20:44:31.840Z,43.30
2018-07-15T20:47:00.212Z,43.10
2018-07-15T20:49:28.644Z,43.00
2018-07-15T20:51:57.151Z,43.00
2018-07-15T20:54:26.103Z,42.90
2018-07-15T20:56:54.630Z,43.50
2018-07-15T20:59:23.049Z,43.50
2018-07-15T21:01:52.069Z,43.30
2018-07-15T21:04:20.536Z,43.50
2018-07-15T21:06:48.915Z,43.70
2018-07-15T21:09:18.089Z,45.10
2018-07-15T21:11:46.584Z,45.00
2018-07-15T21:14:14.943Z,45.90
2018-07-15T21:16:43.787Z,46.80
2018-07-15T21:19:12.143Z,47.90
2018-07-15T21:21:40.552Z,46.80
2018-07-15T21:24:08.886Z,46.30
2018-07-15T21:26:37.220Z,45.60
2018-07-15T21:29:05.601Z,44.50
2018-07-15T21:31:33.988Z,44.90
2018-07-15T21:34:02.310Z,44.40
2018-07-15T21:36:30.677Z,44.60
2018-07-15T21:38:59.048Z,44.60
2018-07-15T21:41:27.790Z,44.20
2018-07-15T21:43:56.187Z,44.30
2018-07-15T21:46:24.579Z,44.50
2018-07-15T21:48:53.010Z,44.80
2018-07-15T21:53:49.653Z,44.90
2018-07-15T21:56:17.992Z,45.30
2018-07-15T21:58:46.443Z,45.60
2018-07-15T22:01:14.888Z,46.20
2018-07-15T22:03:43.886Z,46.30
2018-07-15T22:06:23.738Z,45.40
2018-07-15T22:09:03.689Z,48.20
2018-07-15T22:11:32.117Z,50.30
2018-07-15T22:14:00.694Z,48.70
2018-07-15T22:16:29.016Z,48.60
2018-07-15T22:18:57.541Z,48.30
2018-07-15T22:26:22.183Z,48.20
2018-07-15T22:28:50.590Z,49.20
2018-07-15T22:31:19.024Z,49.70
2018-07-15T22:33:47.364Z,50.70
2018-07-15T22:36:15.865Z,50.40
2018-07-15T22:38:44.230Z,50.40
2018-07-15T22:41:12.549Z,50.30
2018-07-15T22:43:40.902Z,50.20
2018-07-15T22:46:09.977Z,48.90
2018-07-15T22:48:38.445Z,47.90
2018-07-15T22:51:06.824Z,48.10
2018-07-15T22:53:35.224Z,48.80
2018-07-15T22:56:03.592Z,49.00
2018-07-15T22:58:32.002Z,49.60
2018-07-15T23:01:00.579Z,49.10
2018-07-15T23:03:29.294Z,49.50
2018-07-15T23:06:09.104Z,49.10
2018-07-15T23:08:37.482Z,48.50
2018-07-15T23:11:05.854Z,47.80
2018-07-15T23:13:34.244Z,47.70
2018-07-15T23:18:31.141Z,48.10
2018-07-15T23:20:59.863Z,48.90
2018-07-15T23:23:28.543Z,48.00
2018-07-15T23:25:56.918Z,48.10
2018-07-15T23:28:25.251Z,48.10
2018-07-15T23:30:53.676Z,48.00
2018-07-15T23:33:22.040Z,48.20
2018-07-15T23:35:50.432Z,48.20
2018-07-15T23:38:18.820Z,48.20
2018-07-15T23:40:47.149Z,48.40
2018-07-15T23:43:15.575Z,48.50
2018-07-15T23:45:43.928Z,49.10
2018-07-15T23:48:12.257Z,48.40
2018-07-15T23:50:41.936Z,48.60
2018-07-15T23:53:10.310Z,48.90
2018-07-15T23:55:38.801Z,49.10
2018-07-15T23:58:07.317Z,49.30
